Time;durP1;ratioP1;P1;durP2;ratioP2;P2;SDS_P1;SDS_P2;PMS_P1;PMS_P2;Temp;Humidity;BMP_temperature;BMP_pressure;BME280_temperature;BME280_humidity;BME280_pressure;Samples;Min_cycle;Max_cycle;Signal;HPM_P1;HPM_P2
2022/06/07 00:10:24;;;;;;;46.88;29.48;;;;;;;12.01;100.00;101263.53;5012685;28;20060;-90
2022/06/07 00:13:36;;;;;;;49.38;32.20;;;;;;;12.43;100.00;101329.13;4916426;29;20055;-86
2022/06/07 00:16:07;;;;;;;50.60;30.92;;;;;;;11.19;100.00;101127.97;4933080;29;20514;-85
2022/06/07 00:19:03;;;;;;;46.45;30.77;;;;;;;12.40;100.00;101324.97;4932976;29;20110;-84
2022/06/07 00:21:29;;;;;;;48.85;31.50;;;;;;;11.06;100.00;101113.31;4927991;29;20032;-88
2022/06/07 00:23:55;;;;;;;51.90;33.35;;;;;;;11.76;100.00;101225.38;4934596;29;20126;-85
2022/06/07 00:26:21;;;;;;;51.40;33.30;;;;;;;12.32;100.00;101320.25;4936263;29;20518;-85
2022/06/07 00:28:47;;;;;;;51.08;32.10;;;;;;;12.04;100.00;101264.19;4936510;29;20036;-86
2022/06/07 00:31:13;;;;;;;53.08;33.92;;;;;;;11.87;100.00;101235.09;4936176;29;20423;-87
2022/06/07 00:33:38;;;;;;;52.17;34.08;;;;;;;12.17;100.00;101279.78;4935931;29;20071;-86
2022/06/07 00:36:04;;;;;;;53.47;33.90;;;;;;;12.21;100.00;101281.25;4935679;29;20031;-87
2022/06/07 00:38:30;;;;;;;50.22;32.97;;;;;;;12.29;100.00;101297.16;4936050;29;20479;-86
2022/06/07 00:40:56;;;;;;;52.42;34.38;;;;;;;11.88;100.00;101224.63;4936026;29;20114;-84
2022/06/07 00:43:23;;;;;;;53.63;33.70;;;;;;;12.38;100.00;101300.06;4935508;29;20135;-85
2022/06/07 00:45:50;;;;;;;50.92;33.45;;;;;;;12.39;100.00;101297.41;4936025;29;20039;-86
2022/06/07 00:48:15;;;;;;;55.20;34.88;;;;;;;12.39;100.00;101300.00;4935839;29;20499;-86
2022/06/07 00:50:53;;;;;;;55.97;33.53;;;;;;;12.43;100.00;101308.41;4992581;28;20088;-85
2022/06/07 00:53:31;;;;;;;56.25;34.58;;;;;;;12.43;100.00;101300.63;4997910;28;20032;-87
2022/06/07 00:55:57;;;;;;;61.33;35.55;;;;;;;12.34;100.00;101291.66;5015470;28;20101;-85
2022/06/07 00:58:28;;;;;;;56.60;35.55;;;;;;;12.42;100.00;101302.38;4997247;28;20033;-85
2022/06/07 01:00:55;;;;;;;56.92;34.25;;;;;;;12.43;100.00;101298.88;5015155;28;20034;-84
2022/06/07 01:03:33;;;;;;;51.60;33.92;;;;;;;11.60;100.00;101163.41;5015028;28;20030;-85
2022/06/07 01:10:43;;;;;;;52.03;33.92;;;;;;;11.28;100.00;101100.72;5014932;28;20038;-85
2022/06/07 01:11:49;;;;;;;51.08;33.00;;;;;;;11.34;100.00;101109.88;5015055;28;20509;-85
2022/06/07 01:18:03;;;;;;;47.38;31.02;;;;;;;11.16;100.00;101075.63;5014838;28;20187;-84
2022/06/07 02:05:03;;;;;;;45.22;27.83;;;;;;;11.52;100.00;101133.78;5018932;28;20117;-86
2022/06/07 02:30:01;;;;;;;33.90;21.90;;;;;;;10.88;100.00;101033.38;5014017;28;20629;-87
2022/06/07 02:32:31;;;;;;;31.73;21.10;;;;;;;11.32;100.00;101104.81;5013665;28;20100;-90
2022/06/07 02:35:25;;;;;;;31.88;21.17;;;;;;;11.94;100.00;101206.16;5013604;28;20029;-90
2022/06/07 02:38:16;;;;;;;34.75;22.17;;;;;;;12.13;100.00;101238.66;4952769;28;20483;-89
2022/06/07 02:40:45;;;;;;;29.67;19.43;;;;;;;11.07;100.00;101077.03;4953041;29;20118;-88
2022/06/07 02:43:10;;;;;;;31.88;21.00;;;;;;;12.10;100.00;101229.31;4952986;29;20047;-88
2022/06/07 02:45:51;;;;;;;31.35;20.52;;;;;;;11.66;100.00;101157.00;4952510;28;20039;-87
2022/06/07 02:48:40;;;;;;;26.98;18.27;;;;;;;12.12;100.00;101224.03;4952821;28;20110;-86
2022/06/07 02:51:06;;;;;;;28.15;18.80;;;;;;;11.31;100.00;101099.72;4952712;28;20023;-87
2022/06/07 02:56:47;;;;;;;26.92;18.95;;;;;;;11.51;100.00;101138.13;4928306;29;20028;-89
2022/06/07 02:59:30;;;;;;;26.27;17.95;;;;;;;10.95;100.00;101056.28;4913741;29;20048;-87
2022/06/07 03:02:48;;;;;;;28.70;17.58;;;;;;;11.97;100.00;101224.06;4914440;29;20051;-89
2022/06/07 03:05:31;;;;;;;22.77;16.15;;;;;;;10.76;99.43;101030.72;4914657;29;20043;-86
2022/06/07 03:08:00;;;;;;;27.25;16.65;;;;;;;10.66;100.00;101019.28;4914163;29;20485;-87
2022/06/07 03:10:25;;;;;;;20.90;15.77;;;;;;;11.72;99.53;101196.28;4914335;29;20036;-87
2022/06/07 03:12:56;;;;;;;23.17;16.02;;;;;;;10.94;99.63;101070.13;4914614;29;20111;-85
2022/06/07 03:15:40;;;;;;;25.75;16.42;;;;;;;10.97;99.18;101085.44;4914347;29;20048;-87
2022/06/07 03:19:10;;;;;;;21.02;15.45;;;;;;;11.89;99.93;101238.41;4913833;29;20484;-88
2022/06/07 03:21:41;;;;;;;26.50;16.33;;;;;;;11.34;100.00;101159.00;4914047;29;20184;-88
2022/06/07 03:30:22;;;;;;;20.70;14.98;;;;;;;11.82;99.66;101240.56;4921342;29;20095;-88
2022/06/07 03:32:54;;;;;;;23.27;14.50;;;;;;;10.69;98.87;101060.41;4943758;28;20467;-87
2022/06/07 03:35:19;;;;;;;;;;;;;;;11.83;98.87;101249.16;5013170;28;20116;-87
2022/06/07 03:38:01;;;;;;;18.25;13.10;;;;;;;11.81;99.42;101245.84;5012377;28;19961;-88
2022/06/07 03:40:44;;;;;;;20.58;13.27;;;;;;;11.81;99.07;101256.19;5012746;28;20033;-89
2022/06/07 03:43:11;;;;;;;22.73;14.15;;;;;;;11.78;98.76;101255.38;4995188;28;20041;-87
2022/06/07 03:45:36;;;;;;;18.23;13.13;;;;;;;11.56;99.41;101211.06;4994320;28;20053;-88
2022/06/07 03:48:02;;;;;;;19.65;13.18;;;;;;;11.62;99.68;101210.69;5012247;28;20049;-89
2022/06/07 03:50:27;;;;;;;24.05;13.70;;;;;;;10.98;98.35;101116.34;5012595;28;20029;-88
2022/06/07 03:52:53;;;;;;;21.80;12.60;;;;;;;11.25;98.34;101156.97;5012426;28;20474;-86
2022/06/07 03:55:27;;;;;;;17.08;12.73;;;;;;;11.86;98.38;101259.31;5012569;28;20120;-86
2022/06/07 03:57:53;;;;;;;20.15;12.25;;;;;;;10.56;97.85;101047.41;4995199;28;20014;-85
2022/06/07 04:00:21;;;;;;;20.17;12.48;;;;;;;11.36;96.86;101194.16;5016630;28;20030;-88
2022/06/07 04:02:46;;;;;;;19.52;12.43;;;;;;;11.67;97.26;101238.88;5016270;28;20026;-87
2022/06/07 04:08:18;;;;;;;19.48;12.38;;;;;;;10.80;97.35;101089.00;5015586;28;20394;-88
2022/06/07 04:11:27;;;;;;;17.83;12.02;;;;;;;11.95;96.89;101266.50;4998679;28;20037;-87
2022/06/07 04:13:57;;;;;;;20.00;12.30;;;;;;;11.45;96.96;101188.44;5016087;28;20028;-86
2022/06/07 04:16:52;;;;;;;16.73;12.45;;;;;;;10.83;96.66;101089.69;5015917;28;20041;-88
2022/06/07 04:19:32;;;;;;;21.50;12.90;;;;;;;10.72;96.79;101062.84;4935281;29;20127;-88
2022/06/07 04:23:01;;;;;;;18.52;12.13;;;;;;;11.95;95.83;101264.75;4936260;29;20556;-87
2022/06/07 04:25:58;;;;;;;19.65;11.85;;;;;;;10.65;96.88;101062.38;4936067;29;20044;-86
2022/06/07 04:31:49;;;;;;;24.20;12.77;;;;;;;10.70;96.68;101067.25;4935949;29;20036;-85
2022/06/07 04:34:16;;;;;;;19.83;13.02;;;;;;;10.62;96.27;101054.81;4935866;29;20114;-88
2022/06/07 04:36:41;;;;;;;17.98;12.52;;;;;;;11.04;96.57;101122.91;4936045;29;20031;-89
2022/06/07 04:39:07;;;;;;;18.20;13.57;;;;;;;11.98;97.09;101274.06;4935936;29;20413;-88
2022/06/07 04:45:32;;;;;;;17.45;12.68;;;;;;;11.12;96.12;101134.44;4936204;29;20424;-84
2022/06/07 04:47:57;;;;;;;20.52;13.63;;;;;;;11.59;97.13;101203.09;4935665;29;20032;-88
2022/06/07 04:50:32;;;;;;;20.58;13.27;;;;;;;11.64;96.18;101206.25;4991887;28;20379;-88
2022/06/07 04:52:57;;;;;;;23.65;13.68;;;;;;;11.38;95.86;101161.28;5015346;28;20034;-88
2022/06/07 04:55:32;;;;;;;21.00;14.02;;;;;;;11.77;96.40;101217.50;5015450;28;20034;-85
2022/06/07 04:57:57;;;;;;;20.17;13.77;;;;;;;11.18;96.19;101110.78;5015319;28;20435;-87
2022/06/07 05:00:23;;;;;;;22.90;14.80;;;;;;;11.09;95.84;101080.34;5015265;28;20049;-88
2022/06/07 05:02:54;;;;;;;21.98;14.90;;;;;;;11.91;95.29;101210.69;5015027;28;20503;-89
2022/06/07 05:05:32;;;;;;;21.55;14.07;;;;;;;11.25;94.70;101082.00;5015208;28;20080;-89
2022/06/07 05:08:10;;;;;;;24.58;15.05;;;;;;;11.19;94.19;101063.34;5015183;28;20053;-87
2022/06/07 05:11:01;;;;;;;22.58;14.98;;;;;;;11.30;93.25;101075.59;5014635;28;20497;-86
2022/06/07 05:13:36;;;;;;;;;;;;;;;12.75;94.21;101289.03;4916428;29;20047;-88
2022/06/07 05:16:39;;;;;;;22.25;16.02;;;;;;;12.86;93.80;101286.56;4916470;29;20402;-88
2022/06/07 05:19:06;;;;;;;25.80;15.90;;;;;;;12.93;93.68;101281.81;4915512;29;20056;-87
2022/06/07 05:21:35;;;;;;;22.80;15.90;;;;;;;11.94;92.80;101110.38;4915944;29;20145;-87
2022/06/07 05:28:03;;;;;;;26.00;15.93;;;;;;;13.21;92.46;101286.06;4916578;29;20055;-87
2022/06/07 05:34:42;;;;;;;27.27;17.30;;;;;;;13.36;92.09;101287.59;4916456;29;20087;-87
2022/06/07 05:54:14;;;;;;;29.38;17.70;;;;;;;13.47;91.25;101295.50;5014355;28;20108;-83
2022/06/07 05:57:04;;;;;;;26.58;17.63;;;;;;;13.45;91.23;101292.16;5014126;28;20040;-88
2022/06/07 06:00:06;;;;;;;28.98;18.45;;;;;;;12.43;91.76;101129.69;5014004;28;20038;-88
2022/06/07 06:02:56;;;;;;;24.52;18.25;;;;;;;13.53;91.36;101296.03;5014207;28;20394;-87
2022/06/07 06:05:27;;;;;;;28.17;18.30;;;;;;;12.76;91.54;101178.41;5013151;28;20034;-80
2022/06/07 06:11:16;;;;;;;25.27;16.88;;;;;;;13.28;91.48;101216.44;5014118;28;20041;-82
2022/06/07 06:13:42;;;;;;;29.65;17.88;;;;;;;13.21;89.62;101216.03;5014137;28;20060;-83
2022/06/07 06:16:22;;;;;;;27.83;17.88;;;;;;;13.07;90.48;101198.75;5092128;23;20069;-84
2022/06/07 06:18:50;;;;;;;26.00;17.50;;;;;;;13.25;90.58;101209.69;4994164;28;20041;-85
2022/06/07 06:21:50;;;;;;;28.48;18.08;;;;;;;12.69;89.73;101091.69;4993367;28;20069;-85
2022/06/07 06:58:15;;;;;;;27.58;20.02;;;;;;;18.26;67.04;101149.22;4954922;29;20046;-82
2022/06/07 07:08:05;;;;;;;33.63;22.67;;;;;;;17.64;72.74;101302.69;4935286;29;20502;-82
2022/06/07 07:10:40;;;;;;;32.03;21.98;;;;;;;17.55;73.92;101253.03;4918220;29;20035;-82
2022/06/07 07:13:07;;;;;;;29.52;20.88;;;;;;;17.65;73.32;101222.56;4935429;29;20036;-79
2022/06/07 07:16:06;;;;;;;35.55;22.73;;;;;;;18.08;72.54;101302.47;4935325;29;20059;-82
2022/06/07 07:18:52;;;;;;;28.45;21.10;;;;;;;16.68;73.09;101117.72;4918424;29;20051;-82
2022/06/07 07:21:38;;;;;;;36.55;22.45;;;;;;;16.90;74.00;101195.81;4935194;29;20020;-75
2022/06/07 07:24:21;;;;;;;34.67;22.15;;;;;;;17.59;71.94;101194.34;4935267;29;20036;-74
2022/06/07 07:26:47;;;;;;;36.25;23.73;;;;;;;18.40;71.60;101297.88;4933931;29;20035;-74
2022/06/07 07:29:16;;;;;;;32.65;22.70;;;;;;;19.02;69.97;101278.31;4935250;29;20032;-76
2022/06/07 07:31:42;;;;;;;31.65;22.45;;;;;;;19.11;67.83;101274.88;4933871;29;20051;-74
2022/06/07 07:34:10;;;;;;;32.50;23.63;;;;;;;18.62;70.21;101305.44;4939189;29;20122;-74
2022/06/07 07:36:41;;;;;;;33.20;23.98;;;;;;;17.95;72.72;101287.03;4939461;29;20082;-74
2022/06/07 07:39:07;;;;;;;35.58;26.15;;;;;;;17.68;72.79;101271.91;4939247;29;20495;-73
2022/06/07 07:41:35;;;;;;;32.65;25.38;;;;;;;17.90;73.07;101294.44;4937767;29;20043;-76
2022/06/07 07:44:04;;;;;;;34.42;25.88;;;;;;;17.94;73.04;101309.72;4937281;29;20130;-74
2022/06/07 07:46:34;;;;;;;35.83;26.52;;;;;;;17.75;74.33;101312.25;4939035;29;20059;-77
2022/06/07 07:49:00;;;;;;;35.60;27.42;;;;;;;17.73;73.64;101299.34;4937768;29;20114;-74
2022/06/07 07:51:28;;;;;;;34.80;26.50;;;;;;;17.55;73.63;101276.53;4939115;29;20445;-76
2022/06/07 07:53:56;;;;;;;35.47;27.00;;;;;;;17.64;74.54;101273.97;4938702;29;20059;-77
2022/06/07 07:56:29;;;;;;;38.90;27.10;;;;;;;17.71;73.21;101277.75;4938966;29;20036;-80
2022/06/07 07:58:56;;;;;;;33.60;26.27;;;;;;;17.63;74.61;101272.31;4922102;29;20384;-77
2022/06/07 08:01:25;;;;;;;32.55;25.98;;;;;;;17.94;72.88;101301.88;4939174;29;20028;-80
2022/06/07 08:03:53;;;;;;;31.73;25.27;;;;;;;17.56;73.71;101263.34;4938735;29;20027;-76
2022/06/07 08:06:21;;;;;;;33.50;26.90;;;;;;;17.76;75.41;101298.22;4938580;29;20028;-79
2022/06/07 08:08:48;;;;;;;35.78;27.25;;;;;;;18.23;75.29;101308.97;4938738;29;20056;-87
2022/06/07 08:11:16;;;;;;;38.03;28.70;;;;;;;18.16;72.73;101300.00;4938933;29;20028;-84
2022/06/07 08:13:46;;;;;;;32.88;27.70;;;;;;;18.15;72.23;101311.44;4938943;29;20472;-83
2022/06/07 08:16:12;;;;;;;34.60;29.27;;;;;;;18.09;72.97;101299.69;4921973;29;20035;-88
2022/06/07 08:18:39;;;;;;;35.38;29.23;;;;;;;18.42;71.61;101302.94;5050616;23;20057;-78
2022/06/07 08:21:07;;;;;;;36.08;28.48;;;;;;;18.59;69.52;101294.44;4998236;28;20405;-81
2022/06/07 08:23:34;;;;;;;34.35;29.58;;;;;;;18.52;72.01;101298.56;5016145;28;20406;-84
2022/06/07 08:26:08;;;;;;;35.20;28.42;;;;;;;18.39;71.25;101298.84;5015828;28;20108;-80
2022/06/07 08:28:34;;;;;;;36.60;29.40;;;;;;;18.22;72.60;101274.16;5015677;28;20564;-85
2022/06/07 08:31:00;;;;;;;33.08;27.85;;;;;;;18.50;72.18;101305.72;5016209;28;20386;-79
2022/06/07 08:39:07;;;;;;;37.25;30.88;;;;;;;18.38;72.68;101281.47;5015544;28;20336;-85
2022/06/07 08:41:37;;;;;;;34.67;28.77;;;;;;;18.88;70.57;101300.53;5015804;28;20105;-82
2022/06/07 08:44:09;;;;;;;36.70;29.40;;;;;;;19.49;69.30;101301.94;5014909;28;20034;-81
2022/06/07 08:46:36;;;;;;;;;;;;;;;19.94;69.43;101303.81;5015978;28;20030;-82
2022/06/07 08:49:05;;;;;;;33.45;28.17;;;;;;;19.87;68.57;101268.72;4998196;28;19920;-82
2022/06/07 08:51:41;;;;;;;32.40;27.38;;;;;;;20.15;66.81;101274.72;5015446;28;20025;-77
2022/06/07 08:54:17;;;;;;;29.42;25.45;;;;;;;20.38;66.63;101285.63;5015403;28;20179;-80
2022/06/07 08:56:44;;;;;;;30.40;26.80;;;;;;;20.53;65.08;101299.91;5015359;28;20055;-79
2022/06/07 08:59:12;;;;;;;29.73;25.70;;;;;;;20.52;65.15;101258.91;5015235;28;20422;-77
2022/06/07 09:01:54;;;;;;;31.52;27.30;;;;;;;20.64;63.16;101297.03;4997761;28;20050;-79
2022/06/07 09:04:19;;;;;;;33.97;27.15;;;;;;;20.62;65.39;101293.75;5015232;28;20045;-79
2022/06/07 09:06:48;;;;;;;30.70;27.60;;;;;;;20.55;64.04;101277.81;5015269;28;20022;-77
2022/06/07 09:09:18;;;;;;;29.30;26.23;;;;;;;20.62;63.40;101301.63;5015212;28;20022;-80
2022/06/07 09:12:10;;;;;;;28.58;25.50;;;;;;;20.45;64.21;101274.44;5014935;28;20018;-83
2022/06/07 09:14:53;;;;;;;32.00;26.08;;;;;;;20.34;62.66;101291.16;5014616;28;20041;-83
2022/06/07 09:17:39;;;;;;;25.48;22.85;;;;;;;20.17;63.41;101242.16;5014996;28;20101;-82
2022/06/07 09:20:14;;;;;;;26.92;24.02;;;;;;;20.34;63.92;101287.72;5014931;28;20050;-81
2022/06/07 09:22:49;;;;;;;28.67;25.70;;;;;;;20.05;64.07;101270.38;4997343;28;20490;-82
2022/06/07 09:25:24;;;;;;;26.60;23.83;;;;;;;20.00;63.76;101261.31;5014702;28;20026;-82
2022/06/07 09:27:59;;;;;;;27.90;24.73;;;;;;;20.20;65.43;101294.31;4996889;28;20026;-84
2022/06/07 09:30:33;;;;;;;26.50;23.77;;;;;;;20.01;63.35;101257.72;4997338;28;20121;-83
2022/06/07 09:33:10;;;;;;;28.15;25.40;;;;;;;20.14;65.38;101265.22;5014762;28;20026;-83
2022/06/07 09:35:42;;;;;;;28.92;25.83;;;;;;;20.01;64.58;101270.81;4996999;28;20065;-83
2022/06/07 09:38:16;;;;;;;30.20;27.17;;;;;;;19.66;65.48;101293.31;4996565;28;20124;-83
2022/06/07 09:40:56;;;;;;;30.30;27.17;;;;;;;18.74;65.48;101229.47;5014923;28;20030;-82
2022/06/07 09:43:28;;;;;;;27.88;25.00;;;;;;;18.89;66.75;101288.28;4996790;28;20068;-81
2022/06/07 09:46:05;;;;;;;28.38;25.52;;;;;;;18.64;66.62;101239.91;5014511;28;20389;-82
2022/06/07 09:48:40;;;;;;;27.58;24.60;;;;;;;19.11;67.39;101290.56;5014138;28;20042;-84
2022/06/07 09:51:18;;;;;;;26.20;23.27;;;;;;;19.34;66.56;101290.25;5014529;28;20097;-83
2022/06/07 09:53:58;;;;;;;25.27;22.73;;;;;;;19.61;65.88;101264.13;5014514;28;20030;-82
2022/06/07 09:56:53;;;;;;;25.45;22.85;;;;;;;20.07;64.97;101287.78;4996392;28;20045;-80
2022/06/07 09:59:30;;;;;;;24.23;21.65;;;;;;;20.02;64.68;101286.41;4953246;28;20034;-78
2022/06/07 10:02:23;;;;;;;22.08;19.60;;;;;;;19.96;63.98;101252.06;4956835;28;20438;-80
2022/06/07 10:05:08;;;;;;;21.88;19.20;;;;;;;19.77;65.07;101227.66;4956686;28;20137;-79
2022/06/07 10:07:56;;;;;;;21.67;19.55;;;;;;;19.64;64.20;101227.16;4972937;28;20027;-79
2022/06/07 10:10:56;;;;;;;23.63;20.83;;;;;;;19.92;63.58;101277.75;4956396;28;20046;-80
2022/06/07 10:13:46;;;;;;;24.38;21.75;;;;;;;20.25;64.20;101281.56;4896060;29;20092;-79
2022/06/07 10:16:26;;;;;;;25.33;20.00;;;;;;;20.98;64.30;101273.53;4896504;29;20041;-81
2022/06/07 10:18:57;;;;;;;23.08;20.73;;;;;;;21.29;59.41;101275.75;4896263;29;20057;-81
2022/06/07 10:21:34;;;;;;;;;;;;;;;21.40;60.15;101278.91;4896993;29;20075;-88
2022/06/07 10:24:18;;;;;;;22.35;20.15;;;;;;;21.19;60.09;101270.56;4884095;29;19919;-88
2022/06/07 10:26:55;;;;;;;24.63;22.23;;;;;;;20.67;61.28;101275.75;4877249;29;20080;-87
2022/06/07 10:30:02;;;;;;;24.83;22.33;;;;;;;20.29;61.68;101263.75;4877460;29;20037;-79
2022/06/07 10:32:46;;;;;;;24.33;21.65;;;;;;;19.68;62.38;101235.56;4872498;29;20048;-84
2022/06/07 10:35:17;;;;;;;25.40;21.30;;;;;;;19.88;63.98;101271.19;4862732;29;20142;-83
2022/06/07 10:38:02;;;;;;;21.90;19.70;;;;;;;20.17;65.44;101265.75;4896116;29;20131;-85
2022/06/07 10:40:37;;;;;;;24.17;20.05;;;;;;;20.10;64.24;101272.56;4896564;29;20448;-85
2022/06/07 10:43:23;;;;;;;21.98;19.67;;;;;;;19.93;64.88;101239.25;4896056;29;20045;-83
2022/06/07 10:45:54;;;;;;;20.92;18.65;;;;;;;20.11;66.55;101240.13;4896119;29;20032;-83
2022/06/07 10:48:29;;;;;;;23.73;20.03;;;;;;;20.18;62.76;101243.81;4896143;29;20036;-84
2022/06/07 10:54:04;;;;;;;19.02;16.98;;;;;;;20.61;64.01;101248.31;5013267;28;20033;-87
2022/06/07 10:56:33;;;;;;;19.77;17.83;;;;;;;20.14;61.91;101187.38;4995970;28;20036;-82
2022/06/07 10:59:03;;;;;;;17.10;15.32;;;;;;;20.57;63.15;101257.47;5013697;28;20045;-89
2022/06/07 11:01:47;;;;;;;19.75;17.50;;;;;;;20.16;61.03;101211.66;4996102;28;20022;-87
2022/06/07 11:09:19;;;;;;;18.65;15.88;;;;;;;20.36;61.63;101250.88;5013165;28;20033;-84
2022/06/07 11:09:48;;;;;;;17.42;14.88;;;;;;;20.33;62.75;101212.63;5013177;28;20045;-83
2022/06/07 11:12:24;;;;;;;23.38;15.30;;;;;;;20.57;62.47;101227.78;5013062;28;20030;-83
2022/06/07 11:15:08;;;;;;;15.32;13.15;;;;;;;20.86;62.13;101245.91;4995498;28;20107;-83
2022/06/07 11:17:55;;;;;;;15.20;13.52;;;;;;;20.88;60.97;101236.88;5013046;28;20481;-83
2022/06/07 11:20:28;;;;;;;14.80;13.23;;;;;;;21.08;60.62;101249.81;4995205;28;20058;-79
2022/06/07 11:23:15;;;;;;;14.35;12.02;;;;;;;21.08;60.05;101221.75;5012863;28;20034;-82
2022/06/07 11:26:03;;;;;;;14.30;12.65;;;;;;;21.09;59.85;101231.28;5013036;28;20036;-80
2022/06/07 11:28:33;;;;;;;15.43;12.88;;;;;;;20.78;60.88;101228.28;4996437;28;20081;-84
2022/06/07 11:31:20;;;;;;;15.32;13.63;;;;;;;20.79;59.61;101250.91;5012889;28;20025;-86
2022/06/07 11:33:51;;;;;;;14.40;13.00;;;;;;;20.50;61.27;101255.59;4994428;28;20120;-81
2022/06/07 11:36:19;;;;;;;15.43;13.90;;;;;;;20.41;60.19;101254.66;5012902;28;20033;-86
2022/06/07 11:38:56;;;;;;;16.52;12.80;;;;;;;20.69;60.10;101257.25;5012967;28;20455;-86
2022/06/07 11:41:37;;;;;;;14.20;12.70;;;;;;;20.99;57.79;101259.44;5012857;28;20030;-86
2022/06/07 11:44:10;;;;;;;16.52;14.70;;;;;;;21.12;56.54;101262.47;4996147;28;20085;-84
2022/06/07 11:46:35;;;;;;;13.80;12.40;;;;;;;21.28;56.52;101253.91;5012921;28;20109;-86
2022/06/07 11:49:27;;;;;;;13.35;12.05;;;;;;;21.52;56.65;101242.69;4994922;28;20061;-82
2022/06/07 11:52:11;;;;;;;13.48;12.07;;;;;;;21.53;56.29;101220.66;5013089;28;20026;-88
2022/06/07 11:55:04;;;;;;;14.68;12.23;;;;;;;21.88;55.56;101213.56;4995393;28;20109;-87
2022/06/07 11:57:40;;;;;;;11.50;10.30;;;;;;;21.91;53.68;101242.97;5012810;28;20030;-89
2022/06/07 12:00:20;;;;;;;11.73;10.45;;;;;;;21.60;55.25;101239.25;5012449;28;20033;-82
2022/06/07 12:02:58;;;;;;;13.60;10.07;;;;;;;21.51;55.96;101238.41;5012383;28;20381;-86
2022/06/07 12:05:28;;;;;;;13.63;9.38;;;;;;;21.34;54.92;101239.34;5012620;28;20030;-89
2022/06/07 12:08:02;;;;;;;11.73;9.23;;;;;;;20.71;55.07;101158.19;5012584;28;20105;-81
2022/06/07 12:10:36;;;;;;;10.63;8.57;;;;;;;21.10;53.71;101232.09;5012572;28;20030;-83
2022/06/07 12:13:15;;;;;;;10.73;8.70;;;;;;;21.14;57.15;101238.69;4994752;28;20026;-85
2022/06/07 12:15:55;;;;;;;11.10;8.65;;;;;;;20.96;56.46;101217.75;5012321;28;20030;-84
2022/06/07 12:18:28;;;;;;;10.35;8.68;;;;;;;20.95;54.95;101244.97;4994848;28;20018;-83
2022/06/07 12:20:53;;;;;;;14.25;8.68;;;;;;;21.04;59.21;101237.94;4998170;28;20029;-84
2022/06/07 12:23:26;;;;;;;9.68;7.80;;;;;;;21.15;56.63;101237.72;5016101;28;20037;-85
2022/06/07 12:26:23;;;;;;;9.25;7.70;;;;;;;21.17;57.53;101235.75;5015866;28;20050;-88
2022/06/07 12:29:50;;;;;;;9.27;8.35;;;;;;;19.99;57.78;101089.28;5015956;28;20080;-87
2022/06/07 12:35:29;;;;;;;11.40;10.20;;;;;;;20.33;55.88;101168.84;4938054;28;20039;-88
2022/06/07 12:38:05;;;;;;;10.48;8.95;;;;;;;20.49;57.45;101189.19;4936707;29;20400;-83
2022/06/07 12:46:55;;;;;;;9.20;8.15;;;;;;;21.01;58.00;101144.56;4922542;29;20042;-82
2022/06/07 12:49:42;;;;;;;10.10;8.32;;;;;;;21.58;55.26;101157.97;4935853;29;20027;-82
2022/06/07 12:55:37;;;;;;;;;;;;;;;22.55;54.77;101204.63;4936548;29;20044;-82
2022/06/07 12:58:19;;;;;;;9.52;7.25;;;;;;;22.50;53.31;101206.09;4936148;29;19942;-87
2022/06/07 13:00:47;;;;;;;9.30;7.10;;;;;;;22.29;54.00;101210.03;4935997;29;20138;-89
2022/06/07 13:03:33;;;;;;;8.20;6.50;;;;;;;21.99;53.72;101211.44;4936716;29;20547;-90
2022/06/07 13:06:05;;;;;;;9.07;6.78;;;;;;;22.02;54.27;101205.88;4936388;29;20058;-92
2022/06/07 13:08:37;;;;;;;8.00;7.03;;;;;;;21.87;54.52;101160.16;4935597;29;20036;-85
2022/06/07 13:11:05;;;;;;;10.40;7.47;;;;;;;22.39;54.07;101225.66;4920627;29;20384;-87
2022/06/07 13:13:39;;;;;;;8.75;5.47;;;;;;;22.73;53.91;101220.25;5007151;28;20034;-88
2022/06/07 13:16:08;;;;;;;7.85;5.70;;;;;;;23.09;52.78;101206.69;5014889;28;20549;-86
2022/06/07 13:18:38;;;;;;;8.02;6.00;;;;;;;23.30;52.43;101199.03;5014960;28;20022;-82
2022/06/07 13:21:19;;;;;;;10.65;6.03;;;;;;;23.48;52.18;101212.00;5013965;28;20371;-88
2022/06/07 13:23:50;;;;;;;8.38;6.10;;;;;;;23.43;50.01;101215.16;5015562;28;20042;-89
2022/06/07 13:26:30;;;;;;;9.10;6.03;;;;;;;23.36;51.10;101210.72;5015239;28;20045;-88
2022/06/07 13:29:08;;;;;;;8.23;5.28;;;;;;;23.11;52.60;101178.38;5014815;28;20428;-88
2022/06/07 13:31:53;;;;;;;8.02;5.32;;;;;;;22.67;52.48;101181.41;5014651;28;20029;-88
2022/06/07 13:34:23;;;;;;;9.18;5.53;;;;;;;22.40;53.25;101208.88;5015106;28;20469;-87
2022/06/07 13:37:07;;;;;;;8.82;5.25;;;;;;;22.16;54.03;101204.44;5014978;28;20109;-85
2022/06/07 13:39:36;;;;;;;8.57;5.78;;;;;;;21.92;55.08;101207.81;5014769;28;20104;-87
2022/06/07 13:42:08;;;;;;;7.43;5.65;;;;;;;21.40;55.13;101138.84;5013677;28;20038;-88
2022/06/07 13:44:40;;;;;;;6.78;5.32;;;;;;;21.50;55.06;101157.09;4996893;28;20121;-87
2022/06/07 13:54:26;;;;;;;7.07;5.20;;;;;;;20.77;55.29;101003.53;5014593;28;20053;-85
2022/06/07 13:57:37;;;;;;;7.45;5.57;;;;;;;21.92;57.10;101201.72;5014094;28;20032;-84
2022/06/07 14:02:52;;;;;;;7.78;5.40;;;;;;;20.98;56.34;101028.53;5014293;28;20069;-85
2022/06/07 14:05:30;;;;;;;7.60;5.35;;;;;;;21.76;56.76;101135.00;5013991;28;20401;-85
2022/06/07 14:08:00;;;;;;;6.65;5.22;;;;;;;22.05;56.85;101174.00;5014023;28;20030;-85
2022/06/07 14:10:43;;;;;;;8.35;5.25;;;;;;;21.29;57.62;101047.19;5013862;28;20030;-84
2022/06/07 14:17:18;;;;;;;6.53;5.40;;;;;;;21.29;56.90;101024.38;4967635;28;20048;-84
2022/06/07 14:23:31;;;;;;;8.80;6.30;;;;;;;22.31;54.53;101081.75;5012942;28;20061;-83
2022/06/07 14:25:56;;;;;;;7.93;6.10;;;;;;;21.55;55.12;101008.50;5013205;28;20046;-82
2022/06/07 14:28:52;;;;;;;7.75;6.47;;;;;;;22.45;54.35;101190.00;5014151;28;20030;-83
2022/06/07 14:32:01;;;;;;;7.95;6.75;;;;;;;22.17;55.96;101195.56;5013534;28;20026;-82
2022/06/07 14:34:32;;;;;;;7.88;6.57;;;;;;;20.71;56.26;101019.91;5013537;28;20037;-83
2022/06/07 14:37:28;;;;;;;;;;;;;;;21.79;57.25;101185.59;5013710;28;20037;-82
2022/06/07 14:39:54;;;;;;;8.98;7.60;;;;;;;20.19;57.03;101012.06;5013575;28;20106;-81
2022/06/07 14:42:51;;;;;;;7.72;6.82;;;;;;;21.12;58.18;101193.38;5012610;28;20497;-82
2022/06/07 14:52:17;;;;;;;8.27;6.57;;;;;;;20.99;58.83;101129.97;4920485;29;20098;-82
2022/06/07 14:58:13;;;;;;;7.70;6.90;;;;;;;21.30;57.13;101083.00;4934109;29;20095;-79
2022/06/07 15:04:56;;;;;;;9.55;7.10;;;;;;;22.17;56.56;101182.41;4933942;29;20050;-81
2022/06/07 15:10:44;;;;;;;8.18;7.35;;;;;;;20.65;57.43;101023.19;4933988;29;20082;-90
2022/06/07 15:13:36;;;;;;;7.63;6.82;;;;;;;21.33;59.05;101177.22;4858503;29;20049;-83
2022/06/07 15:16:19;;;;;;;8.85;7.20;;;;;;;20.65;60.69;101107.16;4858210;29;20076;-80
2022/06/07 15:18:48;;;;;;;9.02;7.40;;;;;;;20.55;60.40;101122.16;4858291;29;20458;-81
2022/06/07 15:21:16;;;;;;;9.85;7.65;;;;;;;20.80;61.19;101175.63;4858466;29;20056;-81
2022/06/07 15:23:41;;;;;;;9.15;7.72;;;;;;;20.51;62.03;101152.31;4858547;29;20037;-83
2022/06/07 15:26:13;;;;;;;10.63;7.65;;;;;;;20.55;61.25;101174.63;4858447;29;20675;-82
2022/06/07 15:28:38;;;;;;;9.63;7.95;;;;;;;20.37;61.68;101174.63;4892594;29;20127;-81
2022/06/07 15:31:04;;;;;;;10.35;8.27;;;;;;;20.27;62.82;101174.72;4914565;29;20176;-83
2022/06/07 15:33:29;;;;;;;8.65;7.50;;;;;;;20.29;64.02;101175.38;4914153;29;20401;-83
2022/06/07 15:35:55;;;;;;;8.60;7.70;;;;;;;20.08;64.63;101153.09;4914366;29;20078;-83
2022/06/07 15:38:21;;;;;;;10.23;8.55;;;;;;;19.98;62.96;101142.66;4898726;29;20592;-83
2022/06/07 15:40:47;;;;;;;8.55;7.28;;;;;;;20.01;65.32;101156.28;4923971;29;20407;-82
2022/06/07 15:43:16;;;;;;;8.70;7.45;;;;;;;20.02;63.91;101173.66;4932559;29;20039;-80